Time;durP1;ratioP1;P1;durP2;ratioP2;P2;SDS_P1;SDS_P2;PMS_P1;PMS_P2;Temp;Humidity;BMP_temperature;BMP_pressure;BME280_temperature;BME280_humidity;BME280_pressure;Samples;Min_cycle;Max_cycle;Signal;HPM_P1;HPM_P2
2021/03/16 00:01:00;;;;;;;4.33;2.90;;;;;;;3.76;91.69;98628.75;5029417;28;20044;-67
2021/03/16 00:03:26;;;;;;;5.43;3.53;;;;;;;3.63;90.83;98623.22;5027193;28;20033;-68
2021/03/16 00:05:51;;;;;;;3.70;2.70;;;;;;;3.62;91.07;98623.16;5013943;28;20038;-71
2021/03/16 00:08:17;;;;;;;4.40;2.87;;;;;;;3.66;91.55;98630.09;5012768;28;20138;-71
2021/03/16 00:10:42;;;;;;;4.00;3.00;;;;;;;3.67;91.10;98630.16;5012187;28;20037;-70
2021/03/16 00:13:08;;;;;;;5.17;2.43;;;;;;;3.72;91.25;98637.97;5011464;28;20033;-69
2021/03/16 00:15:33;;;;;;;4.23;3.00;;;;;;;3.63;92.04;98632.56;5012321;28;20420;-70
2021/03/16 00:18:01;;;;;;;5.20;3.40;;;;;;;3.64;92.63;98637.72;5013508;28;20022;-68
2021/03/16 00:20:26;;;;;;;4.00;2.97;;;;;;;3.69;92.11;98648.09;5013757;28;20029;-72
2021/03/16 00:22:52;;;;;;;6.60;3.27;;;;;;;3.67;92.42;98642.06;5013206;28;20034;-71
2021/03/16 00:25:17;;;;;;;5.67;3.20;;;;;;;3.78;92.10;98639.88;5011706;28;20029;-72
2021/03/16 00:27:43;;;;;;;4.80;3.13;;;;;;;3.70;91.62;98640.47;5012589;28;20026;-73
2021/03/16 00:30:09;;;;;;;4.00;2.80;;;;;;;3.81;91.98;98642.53;5013270;28;20370;-70
2021/03/16 00:32:34;;;;;;;5.07;3.40;;;;;;;3.96;91.74;98643.06;5017082;28;20088;-70
2021/03/16 00:35:00;;;;;;;4.10;3.03;;;;;;;3.94;90.82;98648.91;5026578;28;20029;-71
2021/03/16 00:37:25;;;;;;;4.70;3.40;;;;;;;3.81;90.21;98606.78;5021866;28;20026;-73
2021/03/16 00:39:52;;;;;;;4.73;3.47;;;;;;;4.11;90.77;98642.72;5030872;28;20571;-75
2021/03/16 00:42:17;;;;;;;3.37;2.80;;;;;;;4.16;89.11;98640.28;5030768;28;20977;-71
2021/03/16 00:44:43;;;;;;;5.53;4.63;;;;;;;4.18;89.07;98616.53;5030855;28;20036;-71
2021/03/16 00:47:08;;;;;;;6.70;5.30;;;;;;;4.42;88.77;98645.38;5031725;28;20049;-73
2021/03/16 00:49:34;;;;;;;5.45;3.22;;;;;;;4.30;88.34;98639.06;5031034;28;20037;-72
2021/03/16 00:51:59;;;;;;;3.90;3.10;;;;;;;4.31;88.57;98638.25;5031875;28;20049;-70
2021/03/16 00:54:25;;;;;;;4.27;3.40;;;;;;;4.02;88.72;98602.38;5030543;28;20031;-70
2021/03/16 00:56:50;;;;;;;4.60;3.03;;;;;;;4.16;89.44;98641.16;5030337;28;20033;-68
2021/03/16 00:59:16;;;;;;;5.30;3.27;;;;;;;4.07;89.46;98638.28;5030722;28;20508;-68
2021/03/16 01:01:41;;;;;;;5.90;3.27;;;;;;;3.98;90.41;98633.75;5030090;28;20057;-68
2021/03/16 01:04:07;;;;;;;7.07;3.87;;;;;;;4.04;90.10;98641.63;5030983;28;20029;-70
2021/03/16 01:06:32;;;;;;;4.83;3.97;;;;;;;3.72;90.35;98592.88;5029692;28;20029;-70
2021/03/16 01:08:58;;;;;;;4.90;3.60;;;;;;;3.85;91.41;98629.94;5031052;28;20546;-70
2021/03/16 01:11:23;;;;;;;4.73;3.53;;;;;;;3.88;91.37;98621.50;5030712;28;20029;-69
2021/03/16 01:13:49;;;;;;;4.73;3.50;;;;;;;3.78;90.82;98599.91;5031102;28;20064;-71
2021/03/16 01:16:14;;;;;;;5.13;3.70;;;;;;;3.94;91.38;98633.59;5031002;28;20386;-71
2021/03/16 01:18:40;;;;;;;3.87;2.97;;;;;;;3.87;90.82;98635.94;5030919;28;20030;-73
2021/03/16 01:21:05;;;;;;;4.63;3.50;;;;;;;3.98;90.96;98641.41;5030882;28;20535;-75
2021/03/16 01:23:31;;;;;;;4.93;3.47;;;;;;;3.90;90.72;98637.75;5029929;28;20036;-73
2021/03/16 01:25:56;;;;;;;4.83;3.33;;;;;;;4.02;90.72;98638.13;5030154;28;20033;-73
2021/03/16 01:28:22;;;;;;;3.90;2.87;;;;;;;3.89;90.93;98641.13;5031050;28;20037;-69
2021/03/16 01:30:47;;;;;;;4.43;3.07;;;;;;;3.92;90.70;98648.00;5052801;28;20108;-73
2021/03/16 01:33:13;;;;;;;3.60;2.60;;;;;;;3.85;90.22;98644.34;5037655;28;20033;-72
2021/03/16 01:35:38;;;;;;;4.37;3.20;;;;;;;3.79;91.35;98645.03;5037053;28;20520;-73
2021/03/16 01:38:03;;;;;;;4.90;2.80;;;;;;;3.83;91.50;98646.88;5037825;28;20501;-72
2021/03/16 01:40:35;;;;;;;4.27;2.57;;;;;;;3.73;91.21;98644.81;5036357;28;20401;-75
2021/03/16 01:43:23;;;;;;;4.13;2.80;;;;;;;3.74;91.53;98636.34;5038018;28;20188;-75
2021/03/16 01:45:50;;;;;;;3.93;2.37;;;;;;;3.80;90.71;98648.44;5037692;28;20017;-71
2021/03/16 01:48:23;;;;;;;4.43;2.87;;;;;;;3.76;91.19;98647.47;5037825;28;20120;-77
2021/03/16 01:50:49;;;;;;;5.03;2.67;;;;;;;3.77;90.85;98641.56;5037451;28;20425;-72
2021/03/16 01:53:16;;;;;;;4.47;3.00;;;;;;;3.69;91.15;98646.41;5037182;28;20029;-75
2021/03/16 01:55:43;;;;;;;5.07;2.77;;;;;;;3.75;91.07;98655.06;5052956;28;20492;-74
2021/03/16 01:58:08;;;;;;;3.60;2.50;;;;;;;3.77;91.28;98661.13;5037338;28;20029;-75
2021/03/16 02:00:39;;;;;;;3.63;2.70;;;;;;;3.77;91.14;98658.56;5037462;28;20041;-72
2021/03/16 02:03:06;;;;;;;4.00;2.63;;;;;;;3.61;91.73;98639.28;5037286;28;20075;-75
2021/03/16 02:05:32;;;;;;;3.63;2.50;;;;;;;3.69;91.86;98655.75;5037181;28;20061;-69
2021/03/16 02:08:24;;;;;;;4.53;2.97;;;;;;;3.73;92.38;98647.38;5037759;28;20053;-71
2021/03/16 02:11:15;;;;;;;3.57;2.40;;;;;;;3.69;92.54;98651.50;5037287;28;20540;-74
2021/03/16 02:14:02;;;;;;;3.37;2.43;;;;;;;3.87;92.08;98655.50;5037204;28;20075;-77
2021/03/16 02:16:42;;;;;;;4.03;2.80;;;;;;;3.80;91.99;98656.09;5037447;28;20100;-75
2021/03/16 02:19:18;;;;;;;3.97;2.67;;;;;;;3.75;92.07;98658.50;5037370;28;20041;-75
2021/03/16 02:21:45;;;;;;;4.07;2.50;;;;;;;3.70;92.63;98660.91;5037449;28;20033;-71
2021/03/16 02:24:27;;;;;;;4.17;3.00;;;;;;;3.75;93.45;98653.41;5036913;28;20075;-70
2021/03/16 02:27:05;;;;;;;4.47;3.03;;;;;;;3.81;93.38;98655.28;5037044;28;20104;-77
2021/03/16 02:29:31;;;;;;;5.00;3.20;;;;;;;3.86;92.69;98658.88;5037460;28;20021;-75
2021/03/16 02:32:03;;;;;;;3.77;2.90;;;;;;;3.79;92.87;98655.25;5037563;28;20108;-75
2021/03/16 02:34:31;;;;;;;4.30;3.13;;;;;;;3.85;92.89;98654.56;5037447;28;20451;-77
2021/03/16 02:36:57;;;;;;;4.00;3.00;;;;;;;4.02;92.17;98661.13;5037272;28;20029;-74
2021/03/16 02:39:25;;;;;;;4.50;3.13;;;;;;;3.86;92.48;98628.22;5037152;28;20040;-74
2021/03/16 02:41:52;;;;;;;5.13;3.23;;;;;;;3.95;92.19;98665.97;5033795;28;20048;-77
2021/03/16 02:44:18;;;;;;;6.53;3.00;;;;;;;4.02;91.66;98671.31;5034157;28;20389;-75
2021/03/16 02:46:49;;;;;;;4.03;2.80;;;;;;;4.00;92.05;98669.53;5034124;28;20083;-71
2021/03/16 02:49:17;;;;;;;3.93;3.03;;;;;;;3.84;91.41;98635.00;5033946;28;20025;-72
2021/03/16 02:51:45;;;;;;;5.07;3.10;;;;;;;3.86;92.49;98643.53;5034283;28;20057;-73
2021/03/16 02:54:11;;;;;;;3.60;2.67;;;;;;;4.03;91.32;98687.53;5034023;28;20029;-74
2021/03/16 02:56:38;;;;;;;4.33;3.03;;;;;;;3.93;92.28;98677.84;5033905;28;20033;-74
2021/03/16 02:59:05;;;;;;;3.80;2.70;;;;;;;3.90;92.67;98683.72;5033872;28;20064;-71
2021/03/16 03:01:34;;;;;;;4.70;3.27;;;;;;;3.89;92.95;98662.41;5048708;28;20036;-76
2021/03/16 03:04:02;;;;;;;5.18;3.05;;;;;;;3.79;93.42;98678.22;5033516;28;20033;-74
2021/03/16 03:06:28;;;;;;;4.73;2.93;;;;;;;3.83;94.08;98687.72;5025931;28;20060;-72
2021/03/16 03:08:54;;;;;;;3.97;2.97;;;;;;;3.71;94.14;98683.06;5014215;28;20033;-72
2021/03/16 03:11:19;;;;;;;6.43;4.00;;;;;;;3.51;95.37;98663.59;5028147;28;20080;-77
2021/03/16 03:13:45;;;;;;;4.63;3.50;;;;;;;3.63;95.85;98683.59;5013395;28;20021;-76
2021/03/16 03:16:10;;;;;;;4.63;3.37;;;;;;;3.65;95.63;98693.03;5013738;28;20022;-74
2021/03/16 03:18:36;;;;;;;6.87;4.40;;;;;;;3.62;96.16;98697.16;5013539;28;20059;-75
2021/03/16 03:21:15;;;;;;;5.00;3.50;;;;;;;3.44;96.01;98656.53;5013801;28;20037;-74
2021/03/16 03:23:47;;;;;;;6.32;4.03;;;;;;;3.79;95.61;98696.09;5013723;28;20058;-78
2021/03/16 03:26:30;;;;;;;8.80;5.70;;;;;;;3.87;95.27;98693.78;5028856;28;20583;-72
2021/03/16 03:28:57;;;;;;;6.20;3.67;;;;;;;3.75;94.81;98691.69;5013414;28;20071;-71
2021/03/16 03:31:27;;;;;;;8.13;3.80;;;;;;;3.65;94.14;98680.28;5013621;28;20034;-75
2021/03/16 03:33:53;;;;;;;4.60;3.33;;;;;;;3.45;94.24;98643.88;5013587;28;20034;-77
2021/03/16 03:36:19;;;;;;;9.37;4.73;;;;;;;3.80;95.16;98690.16;5013280;28;20539;-73
2021/03/16 03:38:45;;;;;;;5.03;3.43;;;;;;;3.85;94.04;98692.84;5012171;28;20029;-76
2021/03/16 03:41:11;;;;;;;5.70;4.03;;;;;;;3.93;93.88;98688.03;5012259;28;20026;-76
2021/03/16 03:43:38;;;;;;;6.50;3.53;;;;;;;4.02;92.54;98684.09;5013237;28;20061;-75
2021/03/16 03:46:06;;;;;;;5.23;3.50;;;;;;;3.91;93.01;98685.41;5012982;28;20116;-73
2021/03/16 03:48:33;;;;;;;4.47;3.43;;;;;;;4.04;92.32;98687.59;5013032;28;20049;-79
2021/03/16 03:51:00;;;;;;;3.97;2.90;;;;;;;4.03;91.44;98690.09;5013212;28;20058;-73
2021/03/16 03:53:27;;;;;;;4.70;3.43;;;;;;;4.00;92.20;98695.97;5012918;28;20033;-75
2021/03/16 03:55:53;;;;;;;6.43;4.10;;;;;;;4.05;92.46;98689.31;5012938;28;20026;-72
2021/03/16 03:58:20;;;;;;;5.73;4.10;;;;;;;4.13;92.09;98697.25;5013344;28;20083;-75
2021/03/16 04:00:47;;;;;;;5.30;3.80;;;;;;;3.98;91.51;98702.69;5012862;28;20115;-76
2021/03/16 04:03:13;;;;;;;5.57;4.00;;;;;;;3.76;92.14;98638.94;5012974;28;20116;-74
2021/03/16 04:05:39;;;;;;;5.50;3.53;;;;;;;4.17;92.00;98698.22;5017523;28;20100;-76
2021/03/16 04:08:07;;;;;;;4.68;3.28;;;;;;;4.01;91.66;98666.19;5032583;28;20106;-75
2021/03/16 04:10:36;;;;;;;4.03;3.03;;;;;;;4.18;91.70;98698.25;5003722;28;20511;-74
2021/03/16 04:13:03;;;;;;;5.57;3.40;;;;;;;4.16;91.69;98691.38;5034876;28;20409;-74
2021/03/16 04:15:29;;;;;;;3.97;3.00;;;;;;;4.06;91.02;98692.72;5031967;28;20381;-78
2021/03/16 04:17:55;;;;;;;7.90;3.30;;;;;;;4.20;91.85;98704.31;5032490;28;20044;-75
2021/03/16 04:20:21;;;;;;;3.70;2.50;;;;;;;4.19;91.97;98701.69;5032366;28;20485;-76
2021/03/16 04:22:47;;;;;;;4.83;3.20;;;;;;;4.14;91.43;98700.69;5031940;28;20155;-75
2021/03/16 04:25:13;;;;;;;4.57;3.07;;;;;;;4.03;91.93;98698.59;5031871;28;20041;-74
2021/03/16 04:27:38;;;;;;;4.77;2.73;;;;;;;4.07;91.47;98708.94;5032220;28;20045;-75
2021/03/16 04:30:08;;;;;;;11.87;6.13;;;;;;;4.00;92.21;98698.53;5032296;28;20480;-76
2021/03/16 04:32:34;;;;;;;4.55;3.30;;;;;;;4.01;92.17;98718.13;5030081;28;20038;-72
2021/03/16 04:35:00;;;;;;;3.90;2.57;;;;;;;4.03;91.79;98715.63;5032124;28;20040;-78
2021/03/16 04:37:25;;;;;;;5.00;3.50;;;;;;;3.80;91.63;98679.06;5031783;28;20029;-74
2021/03/16 04:39:51;;;;;;;4.10;2.90;;;;;;;3.94;92.15;98710.19;5031813;28;20515;-72
2021/03/16 04:42:16;;;;;;;6.07;3.33;;;;;;;4.03;91.56;98719.03;5031819;28;20105;-77
2021/03/16 04:44:42;;;;;;;4.40;2.90;;;;;;;3.84;90.90;98686.91;5032110;28;20455;-74
2021/03/16 04:47:07;;;;;;;4.93;3.10;;;;;;;3.92;90.81;98707.59;5031797;28;20025;-74
2021/03/16 04:49:33;;;;;;;4.93;2.80;;;;;;;4.05;90.92;98717.41;5031726;28;20080;-73
2021/03/16 04:51:58;;;;;;;4.73;2.83;;;;;;;4.08;89.91;98731.13;5031445;28;20397;-72
2021/03/16 04:54:23;;;;;;;3.10;2.00;;;;;;;3.87;89.67;98721.88;5031543;28;20029;-72
2021/03/16 04:56:49;;;;;;;3.23;2.30;;;;;;;3.86;89.55;98727.78;5031660;28;20029;-76
2021/03/16 04:59:14;;;;;;;4.40;2.50;;;;;;;3.98;89.90;98733.34;5031292;28;20025;-72
2021/03/16 05:01:40;;;;;;;3.70;2.40;;;;;;;4.04;89.82;98737.78;5031780;28;20033;-71
2021/03/16 05:04:06;;;;;;;3.93;2.30;;;;;;;3.97;89.49;98715.41;5031062;28;20036;-74
2021/03/16 05:06:31;;;;;;;3.80;2.37;;;;;;;3.82;89.46;98720.84;5030704;28;20063;-73
2021/03/16 05:08:57;;;;;;;2.53;2.00;;;;;;;3.61;89.00;98690.31;5031456;28;20075;-69
2021/03/16 05:11:23;;;;;;;3.67;2.20;;;;;;;3.77;90.25;98732.59;5031214;28;20029;-72
2021/03/16 05:13:50;;;;;;;4.63;2.40;;;;;;;3.87;90.59;98732.94;5031468;28;20065;-74
2021/03/16 05:16:15;;;;;;;4.87;2.80;;;;;;;3.91;90.91;98716.06;5030824;28;20037;-70
2021/03/16 05:18:41;;;;;;;4.33;2.87;;;;;;;4.16;90.33;98730.56;5031577;28;20056;-70
2021/03/16 05:21:06;;;;;;;5.47;2.97;;;;;;;4.03;89.70;98746.28;5030969;28;20091;-71
2021/03/16 05:23:32;;;;;;;5.13;3.10;;;;;;;3.98;89.24;98723.13;5031044;28;20025;-69
2021/03/16 05:25:57;;;;;;;4.97;3.30;;;;;;;4.01;90.30;98730.91;5030940;28;20101;-70
2021/03/16 05:28:23;;;;;;;6.50;4.10;;;;;;;4.00;90.50;98734.25;5030929;28;20026;-71
2021/03/16 05:30:49;;;;;;;8.80;4.90;;;;;;;3.87;90.51;98698.91;5031132;28;20075;-74
2021/03/16 05:33:14;;;;;;;9.17;5.63;;;;;;;4.21;90.13;98746.03;5030686;28;20548;-69
2021/03/16 05:35:39;;;;;;;5.83;4.37;;;;;;;4.00;90.11;98716.38;5029674;28;20032;-70
2021/03/16 05:38:07;;;;;;;8.43;5.63;;;;;;;4.25;90.49;98742.78;5030864;28;20025;-71
2021/03/16 05:40:33;;;;;;;8.10;5.20;;;;;;;4.28;89.93;98747.97;5030950;28;20022;-69
2021/03/16 05:42:59;;;;;;;6.03;3.90;;;;;;;4.24;89.80;98735.94;5029574;28;20448;-69
2021/03/16 05:45:26;;;;;;;5.57;3.60;;;;;;;4.40;89.55;98746.66;5030800;28;20079;-70
2021/03/16 05:47:52;;;;;;;4.57;3.20;;;;;;;4.44;89.96;98743.41;5014988;28;20033;-71
2021/03/16 05:50:18;;;;;;;5.03;3.38;;;;;;;4.29;89.55;98725.88;5028107;28;20447;-69
2021/03/16 05:52:44;;;;;;;5.67;3.73;;;;;;;4.49;89.60;98758.06;5028351;28;20053;-72
2021/03/16 05:55:11;;;;;;;7.78;5.38;;;;;;;4.65;88.75;98754.31;5029128;28;20061;-72
2021/03/16 05:57:36;;;;;;;4.90;3.55;;;;;;;4.57;87.94;98737.84;5030642;28;20435;-69
2021/03/16 06:00:04;;;;;;;4.85;3.67;;;;;;;4.77;87.93;98758.09;5030746;28;20021;-72
2021/03/16 06:02:30;;;;;;;6.35;4.65;;;;;;;4.90;87.66;98767.91;5029872;28;20030;-69
2021/03/16 06:04:55;;;;;;;7.35;5.57;;;;;;;5.00;87.26;98769.06;5030537;28;20026;-69
2021/03/16 06:07:21;;;;;;;5.95;3.60;;;;;;;5.06;86.01;98776.94;5030582;28;20061;-72
2021/03/16 06:09:46;;;;;;;5.95;4.68;;;;;;;5.08;85.13;98776.97;5030884;28;20049;-71
2021/03/16 06:12:12;;;;;;;4.57;3.83;;;;;;;5.11;85.38;98779.63;5030717;28;20021;-72
2021/03/16 06:14:38;;;;;;;5.97;4.35;;;;;;;5.13;85.45;98778.00;5030565;28;20022;-72
2021/03/16 06:17:04;;;;;;;5.53;4.10;;;;;;;5.15;86.10;98782.34;5032824;28;20045;-71
2021/03/16 06:19:32;;;;;;;4.78;3.42;;;;;;;5.11;85.96;98785.63;5034478;28;20020;-69
2021/03/16 06:22:00;;;;;;;6.15;3.78;;;;;;;5.17;86.73;98792.59;5034175;28;20080;-69
2021/03/16 06:24:26;;;;;;;5.35;3.78;;;;;;;5.00;86.58;98766.50;5033855;28;20032;-69
2021/03/16 06:26:51;;;;;;;6.30;4.00;;;;;;;5.16;85.40;98789.19;4999191;28;20030;-72
2021/03/16 06:29:17;;;;;;;9.73;7.82;;;;;;;5.13;85.07;98780.56;5034102;28;20499;-71
2021/03/16 06:31:42;;;;;;;8.60;6.30;;;;;;;5.30;85.98;98804.97;5034490;28;20040;-69
2021/03/16 06:34:21;;;;;;;5.70;3.70;;;;;;;4.86;85.38;98761.81;5034232;28;20496;-71
2021/03/16 06:37:00;;;;;;;5.90;4.13;;;;;;;4.90;85.85;98772.13;5032229;28;20030;-69
2021/03/16 06:39:27;;;;;;;6.57;4.50;;;;;;;4.99;85.02;98806.56;5031784;28;20252;-74
2021/03/16 06:41:53;;;;;;;5.57;3.38;;;;;;;4.88;85.96;98777.22;5034079;28;20083;-71
2021/03/16 06:44:22;;;;;;;5.50;3.03;;;;;;;5.02;84.64;98795.53;5033863;28;20032;-69
2021/03/16 06:46:58;;;;;;;6.28;4.57;;;;;;;4.99;86.08;98796.31;5033771;28;20087;-72
2021/03/16 06:49:25;;;;;;;5.53;3.42;;;;;;;5.07;84.88;98799.16;5024794;28;20593;-69
2021/03/16 06:51:52;;;;;;;6.07;4.18;;;;;;;5.12;85.12;98809.50;5023930;28;20402;-69
2021/03/16 06:54:23;;;;;;;7.00;5.25;;;;;;;5.05;85.24;98779.44;5022806;28;20029;-70
2021/03/16 06:56:57;;;;;;;5.55;4.00;;;;;;;5.05;84.96;98781.97;5031579;28;20030;-72
2021/03/16 06:59:25;;;;;;;7.10;4.47;;;;;;;5.26;86.24;98820.16;5033452;28;20056;-71
2021/03/16 07:01:51;;;;;;;5.55;3.60;;;;;;;5.17;85.77;98820.75;5033430;28;20136;-72
2021/03/16 07:04:19;;;;;;;6.47;4.63;;;;;;;5.15;84.71;98814.72;5033554;28;20033;-72
2021/03/16 07:06:46;;;;;;;6.47;3.80;;;;;;;5.20;85.66;98823.41;5031067;28;20030;-70
2021/03/16 07:09:13;;;;;;;4.88;3.10;;;;;;;4.99;85.20;98816.78;5033452;28;20026;-76
2021/03/16 07:11:44;;;;;;;7.47;3.15;;;;;;;5.02;86.34;98823.69;5033246;28;20033;-72
2021/03/16 07:14:12;;;;;;;3.38;2.22;;;;;;;5.02;85.92;98813.44;5031278;28;20503;-72
2021/03/16 07:16:38;;;;;;;4.80;2.78;;;;;;;5.00;88.18;98823.63;5033348;28;20029;-74
2021/03/16 07:19:07;;;;;;;3.65;2.47;;;;;;;5.09;86.80;98833.28;5032997;28;20152;-72
2021/03/16 07:21:38;;;;;;;3.03;2.35;;;;;;;5.09;86.75;98828.19;5033186;28;20048;-72
2021/03/16 07:24:11;;;;;;;168.70;79.53;;;;;;;5.05;88.30;98835.69;5031533;28;20036;-72
2021/03/16 07:26:38;;;;;;;52.40;33.38;;;;;;;5.06;89.71;98837.44;5016158;28;20092;-71
2021/03/16 07:29:07;;;;;;;16.40;12.30;;;;;;;5.05;89.80;98830.59;5033077;28;20049;-71
2021/03/16 07:31:37;;;;;;;8.35;6.00;;;;;;;5.10;91.05;98845.28;5031226;28;20025;-73
2021/03/16 07:34:08;;;;;;;4.53;3.25;;;;;;;5.15;89.90;98838.63;5032050;28;20029;-71
2021/03/16 07:36:36;;;;;;;8.43;5.78;;;;;;;5.08;89.62;98843.50;5031084;28;20197;-69
2021/03/16 07:39:05;;;;;;;3.40;2.72;;;;;;;4.88;88.96;98848.81;4997654;28;20037;-69
2021/03/16 07:41:31;;;;;;;9.17;6.63;;;;;;;4.83;91.53;98832.44;5028465;28;20025;-73
2021/03/16 07:44:16;;;;;;;11.93;9.63;;;;;;;4.70;91.69;98808.16;5032785;28;20512;-70
2021/03/16 07:46:46;;;;;;;12.52;9.13;;;;;;;4.69;92.66;98814.09;5033034;28;20033;-74
2021/03/16 07:49:14;;;;;;;10.07;8.20;;;;;;;4.64;93.91;98783.25;5032960;28;20413;-72
2021/03/16 07:51:42;;;;;;;8.70;6.95;;;;;;;4.90;93.30;98849.72;5032479;28;20046;-72
2021/03/16 07:54:08;;;;;;;8.10;6.00;;;;;;;4.89;93.91;98837.75;5032921;28;20037;-69
2021/03/16 07:56:35;;;;;;;5.30;3.13;;;;;;;4.90;93.21;98851.41;5032841;28;20081;-72
2021/03/16 07:59:03;;;;;;;3.97;2.65;;;;;;;4.88;93.22;98859.03;5032439;28;20051;-75
2021/03/16 08:01:28;;;;;;;3.72;2.75;;;;;;;4.84;92.96;98849.53;5030992;28;20061;-70
2021/03/16 08:04:08;;;;;;;6.05;4.05;;;;;;;4.89;92.84;98852.25;5026749;28;20484;-75
2021/03/16 08:06:35;;;;;;;4.78;3.55;;;;;;;4.95;92.22;98860.97;5032663;28;20040;-72
2021/03/16 08:09:01;;;;;;;4.38;2.30;;;;;;;4.97;92.74;98864.47;5021397;28;20033;-71
2021/03/16 08:11:39;;;;;;;4.78;3.42;;;;;;;4.97;93.46;98859.34;5034334;28;20087;-71
2021/03/16 08:14:05;;;;;;;8.95;6.80;;;;;;;4.99;90.94;98867.06;5032782;28;20025;-71
2021/03/16 08:16:41;;;;;;;68.05;34.65;;;;;;;4.94;90.94;98872.03;5047595;28;20033;-71
2021/03/16 08:19:20;;;;;;;5.45;4.22;;;;;;;4.94;92.14;98869.47;5032214;28;20554;-71
2021/03/16 08:21:57;;;;;;;2.88;2.20;;;;;;;4.66;90.52;98835.31;4997191;28;20065;-71
2021/03/16 08:24:34;;;;;;;5.65;3.55;;;;;;;4.78;92.03;98852.72;5032470;28;20033;-70
2021/03/16 08:27:00;;;;;;;6.18;3.00;;;;;;;4.87;90.72;98877.75;5031657;28;20025;-71
2021/03/16 08:29:28;;;;;;;4.40;3.10;;;;;;;4.89;92.17;98881.22;5031267;28;20576;-71
2021/03/16 08:31:55;;;;;;;5.20;2.58;;;;;;;4.97;91.82;98876.38;5032142;28;20029;-71
2021/03/16 08:34:22;;;;;;;6.70;3.60;;;;;;;4.84;89.76;98870.00;5032163;28;20030;-72
2021/03/16 08:36:48;;;;;;;10.63;6.68;;;;;;;4.68;90.55;98872.00;5032200;28;20064;-71
2021/03/16 08:39:26;;;;;;;17.92;7.85;;;;;;;4.59;90.92;98883.63;5031064;28;20470;-71
2021/03/16 08:41:52;;;;;;;9.35;6.07;;;;;;;4.65;91.88;98886.38;5030785;28;20021;-71
2021/03/16 08:44:18;;;;;;;21.90;12.88;;;;;;;4.62;91.72;98884.59;5031971;28;20096;-71
2021/03/16 08:46:44;;;;;;;18.67;11.13;;;;;;;4.40;92.01;98846.28;5031925;28;20032;-71
2021/03/16 08:49:14;;;;;;;34.10;20.23;;;;;;;4.59;90.17;98866.56;5031587;28;20100;-71
2021/03/16 08:51:40;;;;;;;13.95;9.48;;;;;;;4.82;90.43;98874.16;5031810;28;20095;-71
2021/03/16 08:54:06;;;;;;;1.92;1.40;;;;;;;4.80;88.10;98860.47;5031552;28;20064;-73
2021/03/16 08:56:32;;;;;;;16.02;9.02;;;;;;;4.99;88.97;98854.28;5031041;28;20116;-70
2021/03/16 08:59:03;;;;;;;2.83;2.00;;;;;;;5.27;88.55;98863.75;5028021;28;20034;-68
2021/03/16 09:01:30;;;;;;;3.38;2.10;;;;;;;5.47;87.31;98853.25;5030008;28;20037;-71
2021/03/16 09:03:57;;;;;;;3.13;1.77;;;;;;;5.59;87.71;98856.19;5031351;28;20022;-69
2021/03/16 09:06:25;;;;;;;5.55;3.13;;;;;;;5.87;90.39;98856.16;5031289;28;20421;-68
2021/03/16 09:08:51;;;;;;;2.33;1.75;;;;;;;5.94;82.94;98843.59;5031361;28;20102;-70
2021/03/16 09:11:46;;;;;;;6.15;3.80;;;;;;;6.00;84.01;98858.28;5031525;28;20053;-68
2021/03/16 09:14:17;;;;;;;8.57;5.38;;;;;;;5.87;86.81;98845.91;4986006;28;20130;-70
2021/03/16 09:16:45;;;;;;;2.75;1.85;;;;;;;5.81;84.34;98856.84;4979145;28;20065;-74
2021/03/16 09:19:13;;;;;;;19.95;7.68;;;;;;;6.02;86.67;98864.34;4986195;28;20038;-72
2021/03/16 09:21:49;;;;;;;3.47;2.17;;;;;;;6.09;86.16;98868.81;4979979;28;20027;-72
2021/03/16 09:24:19;;;;;;;6.43;3.38;;;;;;;6.25;88.29;98854.72;4980138;28;20498;-72
2021/03/16 09:26:50;;;;;;;;;;;;;;;6.29;86.56;98866.81;4980791;28;20518;-71
2021/03/16 09:29:15;;;;;;;9.52;5.90;;;;;;;6.34;85.99;98864.38;4977973;28;19918;-68
2021/03/16 09:31:41;;;;;;;4.03;2.33;;;;;;;6.44;83.84;98870.63;4979774;28;20073;-68
2021/03/16 09:34:07;;;;;;;4.35;2.72;;;;;;;6.48;84.79;98868.19;4987564;28;20028;-74
2021/03/16 09:36:32;;;;;;;8.05;4.15;;;;;;;6.42;81.42;98868.03;4980818;28;20030;-68
2021/03/16 09:38:58;;;;;;;33.03;16.63;;;;;;;6.34;81.19;98841.28;4980404;28;20073;-70
2021/03/16 09:41:24;;;;;;;3.30;2.20;;;;;;;6.53;82.42;98878.56;4978740;28;20558;-69
2021/03/16 09:43:51;;;;;;;4.00;2.30;;;;;;;6.52;81.84;98874.28;4979250;28;20051;-69
2021/03/16 09:46:17;;;;;;;9.88;5.00;;;;;;;6.51;82.55;98882.78;4980390;28;20038;-69
2021/03/16 09:48:51;;;;;;;2.65;1.95;;;;;;;6.53;81.57;98883.72;4971427;28;20043;-70
2021/03/16 09:51:22;;;;;;;2.20;1.77;;;;;;;6.54;81.72;98887.13;5004950;28;20057;-69
2021/03/16 09:53:54;;;;;;;5.05;2.70;;;;;;;6.49;80.05;98889.56;5015433;28;20038;-70
2021/03/16 09:56:26;;;;;;;12.30;6.72;;;;;;;6.46;81.83;98885.22;5015372;28;20429;-70
2021/03/16 09:58:52;;;;;;;25.38;15.45;;;;;;;6.50;81.25;98895.56;5015522;28;20026;-71
2021/03/16 10:01:22;;;;;;;37.50;23.48;;;;;;;6.47;80.21;98893.78;5015298;28;20112;-76
2021/03/16 10:04:14;;;;;;;31.17;21.85;;;;;;;6.63;80.85;98892.53;5015437;28;20088;-70
2021/03/16 10:06:44;;;;;;;4.82;2.58;;;;;;;6.67;82.26;98898.56;5012911;28;20540;-73
2021/03/16 10:09:20;;;;;;;3.55;2.42;;;;;;;6.68;82.32;98892.63;5013159;28;20500;-71
2021/03/16 10:11:47;;;;;;;2.20;1.60;;;;;;;6.79;81.97;98894.66;5013068;28;20045;-75
2021/03/16 10:14:22;;;;;;;2.30;1.80;;;;;;;6.64;82.05;98863.47;5013111;28;20041;-73
2021/03/16 10:16:53;;;;;;;3.75;2.55;;;;;;;6.91;82.39;98891.53;5013007;28;20057;-73
2021/03/16 10:19:21;;;;;;;6.13;4.03;;;;;;;6.79;80.30;98901.47;5012740;28;20033;-70
2021/03/16 10:21:47;;;;;;;9.13;4.90;;;;;;;6.89;82.83;98892.31;4996410;28;20029;-76
2021/03/16 10:24:12;;;;;;;5.65;3.70;;;;;;;7.01;84.52;98907.19;5007561;28;20559;-70
2021/03/16 10:26:39;;;;;;;5.63;3.70;;;;;;;6.73;80.94;98868.84;5003564;28;20504;-72
2021/03/16 10:29:12;;;;;;;5.70;3.80;;;;;;;6.79;80.87;98886.97;5007445;28;20045;-71
2021/03/16 10:31:38;;;;;;;5.88;3.67;;;;;;;6.93;82.35;98904.44;5010746;28;20044;-74
2021/03/16 10:34:04;;;;;;;3.17;2.13;;;;;;;6.87;80.22;98911.97;5011219;28;20042;-72
2021/03/16 10:36:35;;;;;;;2.83;1.80;;;;;;;6.82;81.70;98911.84;5011409;28;20472;-71
2021/03/16 10:39:01;;;;;;;3.30;2.10;;;;;;;6.72;80.06;98900.44;5010712;28;20030;-73
2021/03/16 10:41:27;;;;;;;2.35;1.70;;;;;;;6.78;79.43;98892.91;5008273;28;20037;-73
2021/03/16 10:43:53;;;;;;;2.38;1.77;;;;;;;6.79;80.41;98904.03;5025999;28;20045;-72
2021/03/16 10:46:18;;;;;;;2.65;1.70;;;;;;;6.83;80.20;98905.88;5033067;28;20447;-73
2021/03/16 10:48:43;;;;;;;2.75;1.80;;;;;;;6.91;80.75;98906.94;5033179;28;20028;-71
2021/03/16 10:51:09;;;;;;;1.90;1.60;;;;;;;6.85;81.33;98903.34;5033056;28;20437;-73
2021/03/16 10:53:35;;;;;;;2.42;1.85;;;;;;;6.99;81.68;98906.25;5033021;28;20051;-73
2021/03/16 10:56:02;;;;;;;3.17;2.20;;;;;;;6.89;80.72;98889.75;5033027;28;20040;-73
2021/03/16 10:58:28;;;;;;;1.40;1.30;;;;;;;6.85;76.49;98898.22;5032802;28;20542;-71
2021/03/16 11:00:53;;;;;;;1.90;1.70;;;;;;;6.77;78.50;98891.19;5030454;28;20030;-75
2021/03/16 11:03:19;;;;;;;2.92;2.20;;;;;;;6.92;79.74;98895.84;5032007;28;20035;-71
2021/03/16 11:05:44;;;;;;;1.73;1.33;;;;;;;7.02;76.20;98885.84;5033255;28;20025;-70
2021/03/16 11:08:10;;;;;;;2.80;1.85;;;;;;;7.01;77.50;98891.78;5032387;28;20021;-72
2021/03/16 11:10:36;;;;;;;2.75;2.17;;;;;;;6.99;77.52;98880.59;5030035;28;20389;-72
2021/03/16 11:13:01;;;;;;;3.28;2.15;;;;;;;6.86;79.05;98870.03;5026223;28;20025;-72
2021/03/16 11:15:27;;;;;;;1.63;1.23;;;;;;;6.77;78.13;98890.31;5027818;28;20030;-73
2021/03/16 11:17:52;;;;;;;2.80;1.90;;;;;;;6.59;78.89;98888.13;5032585;28;20075;-72
2021/03/16 11:20:18;;;;;;;2.70;2.08;;;;;;;6.60;79.45;98875.34;5032468;28;20048;-70
2021/03/16 11:22:43;;;;;;;3.17;2.40;;;;;;;6.73;81.02;98897.06;5032264;28;20033;-74
2021/03/16 11:25:10;;;;;;;3.10;2.10;;;;;;;6.81;81.34;98887.00;5032414;28;20060;-69
2021/03/16 11:27:35;;;;;;;6.93;3.38;;;;;;;6.92;82.16;98897.56;5032467;28;20500;-73
2021/03/16 11:30:06;;;;;;;12.18;5.10;;;;;;;6.94;80.40;98891.63;5031892;28;20029;-71
2021/03/16 11:32:31;;;;;;;3.88;2.40;;;;;;;6.73;78.76;98891.94;5029730;28;20030;-74
2021/03/16 11:34:57;;;;;;;4.63;2.53;;;;;;;6.83;79.65;98900.75;5029096;28;20037;-69
2021/03/16 11:37:22;;;;;;;7.47;3.47;;;;;;;6.53;77.16;98857.19;5030404;28;20516;-71
2021/03/16 11:39:48;;;;;;;6.00;3.60;;;;;;;6.77;78.77;98900.59;5030991;28;20079;-71
2021/03/16 11:42:13;;;;;;;3.58;2.42;;;;;;;6.61;75.53;98895.03;5032318;28;20469;-69
2021/03/16 11:44:39;;;;;;;4.57;2.40;;;;;;;6.40;75.54;98868.81;5032588;28;20025;-69